Aérodrome :
LOGIN :

S'inscrire | Disclaimer

   EN    FR    IT 

 










Légende :    VFR   VFR Marginal   IFR   IFR Intensif   IFR Très Intensif
Visi : 
Plafond : 
>= 8 km
>= 3000ft
5 à 8 km
1000 à 3000 ft
1500m à 5 km
500 à 1000 ft
800 à 1500m
200 à 500 ft
< 800m
< 200 ft
Symboles :   Orages  Brouillard  Fortes neiges  Fortes précipitations  Vent > 20 kt
SIGMETs :   Divers  Orages  Givrage  Turbulence  Onde Orograph.  Cendres Volcan.







- Altitude de l'aérodrome : 87 ft
- Code IATA : FSC
- Voir les cartes d'approche


LFKF - Figari

DERNIER METAR :
  • 141430Z AUTO 26016KT 9999 SCT018 BKN026 BKN034 14/12 Q1013 TEMPO 26020G35KT

METARs EXPIRÉS :
  • 141400Z AUTO 25016G27KT 9999 -RADZ SCT024 BKN029 BKN037 14/12 Q1013 NOSIG
  • 141330Z AUTO 26017KT 9999 -RA BKN020 BKN027 BKN036 14/12 Q1013 BECMG 26015G30KT
  • 141300Z AUTO 25019KT 9999 -RA OVC022 15/12 Q1013 BECMG 26015G30KT
  • 141230Z AUTO 25020G31KT 9999 -RA BKN020 OVC027 14/12 Q1014 NOSIG
  • 141200Z AUTO 25021KT 9999 BKN020/// OVC027/// ///TCU 15/12 Q1014 BECMG 26015G30KT BKN030 BKN050

TAF TAF LFKF
Valide du 14 à 15h jusqu'au 15 à 15h UTC


141400Z 1415/1515 26015G30KT 9999 -RA BKN020 BKN040
TEMPO 1415/1417 26020G35KT
TEMPO 1505/1511 4000 RA BKN014 OVC050
Pas de NOTAMs connus pour ce terrain.
4 SIGMETs publiés pour la FIR Marseille (LFMM) :
 
Turbulence forte
LFMM SIGMET 9 VALID 141430/141830 LFPW
LFMM MARSEILLE FIR/UIR SEV TURB FCST WI N4345 E00245 - N4630 E00300 - N4630 E00315 - N4415 E00415 - N4330 E00245 - N4345 E00245 SFC/FL080 STNR INTSF=
Turbulence forte
LFMM SIGMET 8 VALID 141400/141700 LFPW
LFMM MARSEILLE FIR/UIR SEV TURB FCST WI N4345 E00730 - N4315 E00945 - N4115 E00945 - N4115 E00900 - N4230 E00845 - N4330 E00700 - N4345 E00730 SFC/FL060 STNR NC=
Turbulence forte
LFMM SIGMET 7 VALID 141300/141500 LFPW
LFMM MARSEILLE FIR/UIR SEV TURB OBS AT 1300Z WI N4630 E00315 - N4630 E00530 - N4545 E00530 - N4600 E00315 - N4630 E00315 FL160/250 STNR NC=
Onde orographique forte
LFMM SIGMET 6 VALID 141300/141700 LFPW
LFMM MARSEILLE FIR/UIR SEV MTW FCST E OF E00845 SFC/FL320 STNR NC=



MET'MAP, la Météo Aéronautique d'un coup d'oeil ! - Copyright ORBIFLY Décembre 2007 - Disclaimer

ORBIFLY MET'MAP TEAM :

Programmation & Développement : Alexandra Zaïnal
Conception & Développement : Baudouin d'Aumeries
Co-Programmation & Développement : Marc-Olivier Méhu
Soutien technique & logistique : Manuel Goepfert

Contact : metmap@orbifly.com




SOURCES & CREDITS :

   NOAA